Terminal Aerodrome Forecast
Issued by NWS

Home | Current Version | Previous Version | Text Only | Print | Product List | Glossary On
Versions: 1 2 3 4 5 6 7 8 9 10 11 12 13 14 15 16 17
872
FTUS45 KABQ 190542 RRB
TAFAEG
TAF
KAEG 190542Z 1906/2006 32005KT P6SM BKN045
     FM190900 28010KT P6SM SCT030 BKN050
     FM191200 VRB05KT P6SM SCT050
     FM191800 24006KT P6SM BKN200
     FM192000 27012G19KT P6SM SCT060 BKN120=

USA.gov is the U.S. government's official web portal to all federal, state and local government web resources and services.